createdAt,value
2019-05-22T00:01:45.985Z,100740.28
2019-05-22T00:04:15.372Z,100733.75
2019-05-22T00:06:47.972Z,100733.34
2019-05-22T00:09:20.478Z,100733.39
2019-05-22T00:11:49.701Z,100731.68
2019-05-22T00:14:17.495Z,100733.91
2019-05-22T00:16:47.017Z,100733.05
2019-05-22T00:19:15.190Z,100729.16
2019-05-22T00:21:42.971Z,100734.41
2019-05-22T00:24:12.367Z,100730.06
2019-05-22T00:26:41.856Z,100729.20
2019-05-22T00:29:10.711Z,100728.76
2019-05-22T00:31:38.479Z,100727.90
2019-05-22T00:34:06.208Z,100727.45
2019-05-22T00:36:34.007Z,100733.19
2019-05-22T00:39:03.453Z,100730.97
2019-05-22T00:41:32.834Z,100731.84
2019-05-22T00:44:01.993Z,100733.59
2019-05-22T00:46:30.103Z,100727.90
2019-05-22T00:48:58.613Z,100736.17
2019-05-22T00:51:36.913Z,100727.40
2019-05-22T00:54:25.595Z,100738.33
2019-05-22T00:56:58.081Z,100730.88
2019-05-22T00:59:36.440Z,100733.50
2019-05-22T01:02:11.606Z,100732.18
2019-05-22T01:04:43.331Z,100733.48
2019-05-22T01:07:21.749Z,100731.31
2019-05-22T01:09:51.756Z,100740.05
2019-05-22T01:12:27.139Z,100746.56
2019-05-22T01:14:56.654Z,100748.32
2019-05-22T01:17:25.151Z,100747.88
2019-05-22T01:19:54.575Z,100749.22
2019-05-22T01:22:23.913Z,100756.64
2019-05-22T01:24:53.475Z,100756.23
2019-05-22T01:27:23.269Z,100756.28
2019-05-22T01:29:51.190Z,100753.67
2019-05-22T01:32:23.065Z,100754.12
2019-05-22T01:34:51.616Z,100755.02
2019-05-22T01:37:19.370Z,100755.48
2019-05-22T01:40:02.699Z,100754.61
2019-05-22T01:42:32.679Z,100752.45
2019-05-22T01:45:06.590Z,100750.28
2019-05-22T01:47:42.558Z,100748.52
2019-05-22T01:50:13.316Z,100747.62
2019-05-22T01:52:42.022Z,100755.48
2019-05-22T01:55:10.057Z,100756.38
2019-05-22T01:57:38.892Z,100754.22
2019-05-22T02:00:09.644Z,100759.91
2019-05-22T02:02:37.645Z,100760.40
2019-05-22T02:05:06.362Z,100766.06
2019-05-22T02:07:34.372Z,100767.86
2019-05-22T02:10:02.759Z,100766.97
2019-05-22T02:12:36.394Z,100773.09
2019-05-22T02:15:06.996Z,100771.79
2019-05-22T02:17:35.506Z,100769.63
2019-05-22T02:20:05.526Z,100767.91
2019-05-22T02:22:34.143Z,100764.88
2019-05-22T02:25:02.758Z,100762.72
2019-05-22T02:27:31.784Z,100757.52
2019-05-22T02:30:02.350Z,100763.21
2019-05-22T02:32:31.699Z,100761.05
2019-05-22T02:35:00.926Z,100769.80
2019-05-22T02:37:30.086Z,100769.84
2019-05-22T02:39:57.805Z,100772.05
2019-05-22T02:42:26.921Z,100773.38
2019-05-22T02:44:55.701Z,100772.55
2019-05-22T02:47:25.261Z,100776.94
2019-05-22T02:49:53.074Z,100770.45
2019-05-22T02:52:22.104Z,100773.08
2019-05-22T02:54:49.928Z,100774.88
2019-05-22T02:57:17.914Z,100774.46
2019-05-22T02:59:45.701Z,100780.19
2019-05-22T03:02:14.239Z,100788.52
2019-05-22T03:05:00.560Z,100787.25
2019-05-22T03:07:28.734Z,100794.72
2019-05-22T03:09:56.834Z,100798.70
2019-05-22T03:12:26.435Z,100795.27
2019-05-22T03:14:54.745Z,100789.19
2019-05-22T03:17:28.051Z,100793.14
2019-05-22T03:19:56.833Z,100754.09
2019-05-22T03:22:39.965Z,100794.95
2019-05-22T03:25:09.558Z,100794.98
2019-05-22T03:27:47.223Z,100795.45
2019-05-22T03:30:17.767Z,100792.00
2019-05-22T03:32:47.878Z,100785.03
2019-05-22T03:35:15.649Z,100795.94
2019-05-22T03:37:43.405Z,100793.36
2019-05-22T03:40:11.481Z,100798.17
2019-05-22T03:42:39.295Z,100811.23
2019-05-22T03:45:07.760Z,100816.48
2019-05-22T03:47:36.210Z,100828.70
2019-05-22T03:50:06.274Z,100824.34
2019-05-22T03:52:34.814Z,100826.98
2019-05-22T03:55:02.554Z,100831.34
2019-05-22T03:57:30.970Z,100837.89
2019-05-22T03:59:58.774Z,100839.22
2019-05-22T04:02:26.508Z,100839.21
2019-05-22T04:04:54.839Z,100841.41
2019-05-22T04:07:24.203Z,100843.59
2019-05-22T04:09:52.853Z,100851.88
2019-05-22T04:12:20.766Z,100851.88
2019-05-22T04:14:49.022Z,100846.64
2019-05-22T04:17:17.674Z,100848.39
2019-05-22T04:19:50.537Z,100848.84
2019-05-22T04:22:15.300Z,100851.88
2019-05-22T04:24:43.219Z,100855.79
2019-05-22T04:27:12.629Z,100854.94
2019-05-22T04:29:40.887Z,100846.64
2019-05-22T04:32:12.899Z,100851.88
2019-05-22T04:34:41.782Z,100857.55
2019-05-22T04:37:10.773Z,100860.16
2019-05-22T04:39:38.973Z,100866.25
2019-05-22T04:42:07.836Z,100871.92
2019-05-22T04:44:36.163Z,100873.25
2019-05-22T04:47:03.968Z,100875.42
2019-05-22T04:49:31.808Z,100882.83
2019-05-22T04:51:59.744Z,100880.20
2019-05-22T04:54:27.499Z,100883.69
2019-05-22T04:56:55.250Z,100885.41
2019-05-22T04:59:24.138Z,100884.54
2019-05-22T05:01:51.883Z,100878.89
2019-05-22T05:04:19.699Z,100881.50
2019-05-22T05:06:48.059Z,100871.48
2019-05-22T05:09:16.301Z,100875.40
2019-05-22T05:11:44.212Z,100874.97
2019-05-22T05:14:12.070Z,100863.22
2019-05-22T05:16:39.829Z,100868.03
2019-05-22T05:19:07.582Z,100878.50
2019-05-22T05:21:35.367Z,100879.80
2019-05-22T05:24:03.394Z,100878.06
2019-05-22T05:26:32.783Z,100874.59
2019-05-22T05:29:00.959Z,100880.68
2019-05-22T05:31:28.703Z,100875.47
2019-05-22T05:34:10.549Z,100889.81
2019-05-22T05:36:38.441Z,100886.33
2019-05-22T05:39:08.316Z,100893.33
2019-05-22T05:41:36.106Z,100899.44
2019-05-22T05:44:04.630Z,100896.83
2019-05-22T05:46:32.353Z,100901.16
2019-05-22T05:49:01.151Z,100900.76
2019-05-22T05:51:31.305Z,100899.43
2019-05-22T05:54:01.291Z,100899.88
2019-05-22T05:56:30.367Z,100902.51
2019-05-22T05:58:59.598Z,100906.00
2019-05-22T06:01:31.997Z,100909.05
2019-05-22T06:04:00.521Z,100912.08
2019-05-22T06:06:31.391Z,100912.08
2019-05-22T06:08:59.682Z,100914.70
2019-05-22T06:11:35.750Z,100914.25
2019-05-22T06:14:04.120Z,100921.64
2019-05-22T06:16:50.229Z,100918.61
2019-05-22T06:19:18.364Z,100921.23
2019-05-22T06:21:47.994Z,100923.83
2019-05-22T06:24:27.821Z,100926.88
2019-05-22T06:26:57.979Z,100928.17
2019-05-22T06:29:28.188Z,100931.25
2019-05-22T06:32:04.726Z,100933.84
2019-05-22T06:34:32.457Z,100933.84
2019-05-22T06:37:02.127Z,100933.86
2019-05-22T06:39:30.383Z,100935.15
2019-05-22T06:41:58.289Z,100923.41
2019-05-22T06:44:28.559Z,100920.78
2019-05-22T06:46:57.163Z,100936.02
2019-05-22T06:49:32.494Z,100936.91
2019-05-22T06:52:00.254Z,100943.00
2019-05-22T06:54:28.077Z,100947.34
2019-05-22T06:56:55.878Z,100912.94
2019-05-22T06:59:23.588Z,100944.28
2019-05-22T07:01:59.322Z,100947.80
2019-05-22T07:04:21.313Z,100942.55
2019-05-22T07:06:49.134Z,100947.34
2019-05-22T07:09:18.559Z,100956.94
2019-05-22T07:11:47.114Z,100964.77
2019-05-22T07:14:15.709Z,100965.21
2019-05-22T07:16:43.572Z,100970.84
2019-05-22T07:19:12.890Z,100975.64
2019-05-22T07:21:40.872Z,100978.70
2019-05-22T07:24:08.665Z,100974.34
2019-05-22T07:26:37.298Z,100984.78
2019-05-22T07:29:05.293Z,100981.72
2019-05-22T07:31:33.315Z,100982.17
2019-05-22T07:34:01.131Z,100983.48
2019-05-22T07:36:29.452Z,100987.39
2019-05-22T07:38:58.258Z,100981.73
2019-05-22T07:41:26.007Z,100979.57
2019-05-22T07:43:53.817Z,100984.78
2019-05-22T07:46:21.541Z,100991.75
2019-05-22T07:48:49.300Z,100987.83
2019-05-22T07:51:17.519Z,100994.78
2019-05-22T07:53:45.310Z,100992.59
2019-05-22T07:56:13.942Z,100995.22
2019-05-22T07:58:42.052Z,100991.29
2019-05-22T08:01:10.718Z,100998.26
2019-05-22T08:03:38.639Z,100995.23
2019-05-22T08:06:06.959Z,100999.59
2019-05-22T08:08:36.526Z,100999.16
2019-05-22T08:11:05.695Z,100990.88
2019-05-22T08:13:33.650Z,101005.25
2019-05-22T08:16:01.801Z,101014.39
2019-05-22T08:18:31.525Z,101018.73
2019-05-22T08:20:59.386Z,101022.67
2019-05-22T08:23:27.170Z,101033.55
2019-05-22T08:25:56.115Z,101033.10
2019-05-22T08:28:24.843Z,101034.87
2019-05-22T08:30:52.622Z,101042.24
2019-05-22T08:33:20.959Z,101037.04
2019-05-22T08:35:49.193Z,101045.30
2019-05-22T08:38:17.057Z,101045.30
2019-05-22T08:40:45.447Z,101040.52
2019-05-22T08:43:13.295Z,101045.28
2019-05-22T08:45:41.081Z,101039.63
2019-05-22T08:48:09.306Z,101051.81
2019-05-22T08:50:37.832Z,101043.54
2019-05-22T08:53:06.357Z,101036.57
2019-05-22T08:55:35.524Z,101037.86
2019-05-22T08:58:04.290Z,101035.27
2019-05-22T09:00:32.734Z,101043.96
2019-05-22T09:03:01.478Z,101052.68
2019-05-22T09:05:29.235Z,101050.49
2019-05-22T09:07:57.013Z,101051.39
2019-05-22T09:10:26.069Z,101049.22
2019-05-22T09:12:54.188Z,101059.66
2019-05-22T09:15:22.247Z,101053.14
2019-05-22T09:17:50.098Z,101057.92
2019-05-22T09:20:18.390Z,101056.63
2019-05-22T09:22:47.165Z,101060.13
2019-05-22T09:25:16.442Z,101065.34
2019-05-22T09:27:44.996Z,101071.89
2019-05-22T09:30:13.219Z,101066.68
2019-05-22T09:32:40.958Z,101070.16
2019-05-22T09:35:08.713Z,101068.42
2019-05-22T09:37:36.644Z,101072.35
2019-05-22T09:40:05.452Z,101077.56
2019-05-22T09:42:34.515Z,101082.38
2019-05-22T09:45:03.738Z,101063.62
2019-05-22T09:47:31.562Z,101083.66
2019-05-22T09:49:59.969Z,101079.77
2019-05-22T09:52:28.163Z,101083.24
2019-05-22T09:54:56.275Z,101077.56
2019-05-22T09:57:24.189Z,101082.80
2019-05-22T09:59:51.972Z,101088.02
2019-05-22T10:02:19.786Z,101086.69
2019-05-22T10:04:47.955Z,101094.56
2019-05-22T10:07:15.806Z,101096.73
2019-05-22T10:09:44.221Z,101105.44
2019-05-22T10:12:12.133Z,101109.36
2019-05-22T10:14:41.073Z,101114.19
2019-05-22T10:17:10.237Z,101120.70
2019-05-22T10:19:38.555Z,101116.80
2019-05-22T10:22:07.978Z,101116.81
2019-05-22T10:24:36.109Z,101113.73
2019-05-22T10:27:05.532Z,101125.50
2019-05-22T10:29:33.796Z,101129.44
2019-05-22T10:32:01.515Z,101125.53
2019-05-22T10:34:29.326Z,101119.40
2019-05-22T10:36:57.106Z,101129.86
2019-05-22T10:39:25.915Z,101135.53
2019-05-22T10:41:53.666Z,101142.92
2019-05-22T10:44:22.482Z,101139.00
2019-05-22T10:46:50.236Z,101145.11
2019-05-22T10:49:18.002Z,101139.43
2019-05-22T10:51:46.278Z,101144.67
2019-05-22T10:54:14.283Z,101148.56
2019-05-22T10:56:42.032Z,101157.27
2019-05-22T10:59:10.001Z,101155.53
2019-05-22T11:01:37.855Z,101158.13
2019-05-22T11:04:05.620Z,101158.13
2019-05-22T11:06:33.480Z,101145.48
2019-05-22T11:09:01.575Z,101158.13
2019-05-22T11:11:29.429Z,101153.77
2019-05-22T11:14:01.786Z,101158.55
2019-05-22T11:16:26.997Z,101155.94
2019-05-22T11:18:55.130Z,101159.42
2019-05-22T11:21:22.923Z,101158.98
2019-05-22T11:23:52.849Z,101161.14
2019-05-22T11:26:20.154Z,101160.30
2019-05-22T11:28:48.001Z,101162.03
2019-05-22T11:31:16.244Z,101159.42
2019-05-22T11:33:44.481Z,101162.02
2019-05-22T11:36:13.252Z,101168.54
2019-05-22T11:38:41.082Z,101178.53
2019-05-22T11:41:08.829Z,101181.12
2019-05-22T11:43:36.639Z,101180.22
2019-05-22T11:46:05.745Z,101166.23
2019-05-22T11:48:33.508Z,101190.23
2019-05-22T11:51:01.481Z,101186.30
2019-05-22T11:53:29.253Z,101195.90
2019-05-22T11:55:56.998Z,101199.81
2019-05-22T11:58:24.780Z,101201.11
2019-05-22T12:00:52.561Z,101198.52
2019-05-22T12:03:20.491Z,101192.42
2019-05-22T12:05:48.271Z,101199.83
2019-05-22T12:08:16.529Z,101203.75
2019-05-22T12:10:44.860Z,101198.10
2019-05-22T12:13:12.759Z,101205.49
2019-05-22T12:15:40.691Z,101200.25
2019-05-22T12:18:08.898Z,101212.47
2019-05-22T12:20:37.197Z,101196.37
2019-05-22T12:23:04.947Z,101210.33
2019-05-22T12:25:32.690Z,101217.27
2019-05-22T12:28:00.479Z,101218.12
2019-05-22T12:30:28.225Z,101213.31
2019-05-22T12:32:56.303Z,101215.48
2019-05-22T12:35:24.227Z,101214.56
2019-05-22T12:37:51.973Z,101218.01
2019-05-22T12:40:20.289Z,101221.91
2019-05-22T12:42:48.514Z,101222.31
2019-05-22T12:45:16.346Z,101225.37
2019-05-22T12:47:45.481Z,101223.56
2019-05-22T12:50:15.604Z,101215.67
2019-05-22T12:52:44.226Z,101217.38
2019-05-22T12:55:12.061Z,101221.28
2019-05-22T12:57:39.868Z,101221.69
2019-05-22T13:00:08.492Z,101239.05
2019-05-22T13:02:36.483Z,101236.34
2019-05-22T13:05:05.368Z,101245.45
2019-05-22T13:07:33.611Z,101238.02
2019-05-22T13:10:01.751Z,101243.20
2019-05-22T13:12:30.003Z,101237.13
2019-05-22T13:15:08.938Z,101243.63
2019-05-22T13:17:27.834Z,101242.30
2019-05-22T13:19:55.737Z,101242.75
2019-05-22T13:22:24.249Z,101239.27
2019-05-22T13:24:52.009Z,101240.16
2019-05-22T13:27:20.059Z,101245.41
2019-05-22T13:29:48.494Z,101243.64
2019-05-22T13:32:16.268Z,101258.86
2019-05-22T13:34:44.126Z,101249.25
2019-05-22T13:37:11.898Z,101256.62
2019-05-22T13:39:39.748Z,101259.20
2019-05-22T13:42:07.529Z,101269.63
2019-05-22T13:44:35.444Z,101266.63
2019-05-22T13:47:04.422Z,101268.80
2019-05-22T13:49:34.354Z,101267.48
2019-05-22T13:52:02.123Z,101267.03
2019-05-22T13:54:30.426Z,101270.48
2019-05-22T13:56:58.714Z,101264.80
2019-05-22T13:59:27.108Z,101265.65
2019-05-22T14:01:54.937Z,101276.95
2019-05-22T14:04:22.730Z,101269.53
2019-05-22T14:06:50.610Z,101277.80
2019-05-22T14:09:21.473Z,101274.75
2019-05-22T14:11:50.121Z,101283.45
2019-05-22T14:14:17.950Z,101282.61
2019-05-22T14:16:48.935Z,101290.40
2019-05-22T14:19:15.155Z,101294.77
2019-05-22T14:21:50.055Z,101297.84
2019-05-22T14:24:12.328Z,101292.62
2019-05-22T14:26:40.144Z,101297.84
2019-05-22T14:29:07.989Z,101291.78
2019-05-22T14:31:35.745Z,101300.02
2019-05-22T14:34:04.515Z,101296.94
2019-05-22T14:36:32.470Z,101294.80
2019-05-22T14:39:01.825Z,101298.28
2019-05-22T14:41:29.615Z,101298.25
2019-05-22T14:43:57.383Z,101292.58
2019-05-22T14:46:25.152Z,101299.06
2019-05-22T14:48:52.944Z,101297.34
2019-05-22T14:51:22.678Z,101285.14
2019-05-22T14:53:52.308Z,101292.06
2019-05-22T14:56:20.110Z,101297.69
2019-05-22T14:58:48.067Z,101298.96
2019-05-22T15:01:15.940Z,101304.58
2019-05-22T15:03:43.795Z,101305.42
2019-05-22T15:06:11.718Z,101305.86
2019-05-22T15:08:39.479Z,101307.16
2019-05-22T15:11:07.352Z,101301.92
2019-05-22T15:13:35.861Z,101301.48
2019-05-22T15:16:03.594Z,101309.31
2019-05-22T15:18:32.350Z,101313.66
2019-05-22T15:21:01.566Z,101315.36
2019-05-22T15:23:31.228Z,101316.20
2019-05-22T15:25:59.617Z,101320.11
2019-05-22T15:28:27.382Z,101317.48
2019-05-22T15:30:55.219Z,101316.58
2019-05-22T15:33:23.011Z,101324.83
2019-05-22T15:35:51.217Z,101330.92
2019-05-22T15:38:19.258Z,101324.38
2019-05-22T15:40:47.513Z,101320.02
2019-05-22T15:43:15.731Z,101322.23
2019-05-22T15:45:43.484Z,101322.23
2019-05-22T15:48:13.996Z,101325.70
2019-05-22T15:50:42.445Z,101325.70
2019-05-22T15:53:14.891Z,101329.18
2019-05-22T15:55:42.614Z,101332.66
2019-05-22T15:58:10.528Z,101336.09
2019-05-22T16:00:39.067Z,101334.83
2019-05-22T16:03:13.851Z,101344.41
2019-05-22T16:05:42.251Z,101345.31
2019-05-22T16:08:10.171Z,101347.95
2019-05-22T16:10:38.033Z,101341.41
2019-05-22T16:13:05.836Z,101343.17
2019-05-22T16:15:34.823Z,101344.91
2019-05-22T16:18:11.744Z,101343.20
2019-05-22T16:20:32.096Z,101346.70
2019-05-22T16:22:59.855Z,101354.09
2019-05-22T16:25:29.028Z,101345.41
2019-05-22T16:27:56.777Z,101344.10
2019-05-22T16:30:25.635Z,101344.97
2019-05-22T16:32:53.685Z,101346.27
2019-05-22T16:35:21.600Z,101348.45
2019-05-22T16:37:49.355Z,101355.39
2019-05-22T16:40:17.327Z,101348.87
2019-05-22T16:42:45.083Z,101355.86
2019-05-22T16:45:13.967Z,101351.52
2019-05-22T16:47:41.884Z,101354.56
2019-05-22T16:50:09.908Z,101361.91
2019-05-22T16:52:37.657Z,101358.44
2019-05-22T16:55:07.645Z,101365.83
2019-05-22T16:57:36.030Z,101368.44
2019-05-22T17:00:04.928Z,101371.91
2019-05-22T17:02:33.541Z,101367.12
2019-05-22T17:05:02.212Z,101367.16
2019-05-22T17:07:30.420Z,101371.07
2019-05-22T17:09:58.197Z,101378.48
2019-05-22T17:12:26.317Z,101377.62
2019-05-22T17:14:54.537Z,101375.41
2019-05-22T17:17:22.367Z,101375.42
2019-05-22T17:19:50.475Z,101379.33
2019-05-22T17:22:18.226Z,101371.47
2019-05-22T17:24:46.020Z,101383.17
2019-05-22T17:27:15.439Z,101381.44
2019-05-22T17:29:44.252Z,101383.58
2019-05-22T17:32:12.710Z,101377.06
2019-05-22T17:34:40.545Z,101382.21
2019-05-22T17:37:10.703Z,101387.89
2019-05-22T17:39:39.515Z,101381.78
2019-05-22T17:42:08.056Z,101388.73
2019-05-22T17:44:36.629Z,101383.48
2019-05-22T17:47:06.740Z,101392.57
2019-05-22T17:49:34.754Z,101394.74
2019-05-22T17:52:03.442Z,101398.19
2019-05-22T17:54:31.929Z,101396.42
2019-05-22T17:56:59.901Z,101406.37
2019-05-22T17:59:28.229Z,101412.92
2019-05-22T18:01:56.033Z,101415.53
2019-05-22T18:04:24.037Z,101415.96
2019-05-22T18:06:52.242Z,101418.57
2019-05-22T18:09:20.298Z,101421.61
2019-05-22T18:11:48.086Z,101424.72
2019-05-22T18:14:15.803Z,101422.52
2019-05-22T18:16:43.611Z,101419.08
2019-05-22T18:19:11.411Z,101430.80
2019-05-22T18:21:40.036Z,101429.50
2019-05-22T18:24:09.018Z,101434.28
2019-05-22T18:26:36.766Z,101429.94
2019-05-22T18:29:04.585Z,101432.54
2019-05-22T18:31:32.556Z,101432.03
2019-05-22T18:34:00.312Z,101438.12
2019-05-22T18:36:28.061Z,101434.64
2019-05-22T18:38:55.860Z,101437.25
2019-05-22T18:41:23.604Z,101442.46
2019-05-22T18:43:51.925Z,101440.29
2019-05-22T18:46:19.705Z,101442.89
2019-05-22T18:48:48.304Z,101447.64
2019-05-22T18:51:16.704Z,101451.55
2019-05-22T18:53:44.571Z,101451.04
2019-05-22T18:56:13.420Z,101452.31
2019-05-22T18:58:43.183Z,101465.77
2019-05-22T19:01:10.968Z,101469.21
2019-05-22T19:03:38.714Z,101469.20
2019-05-22T19:06:06.489Z,101467.43
2019-05-22T19:08:34.326Z,101467.39
2019-05-22T19:11:04.195Z,101475.64
2019-05-22T19:13:34.663Z,101468.19
2019-05-22T19:16:02.412Z,101472.97
2019-05-22T19:18:30.288Z,101466.38
2019-05-22T19:20:57.967Z,101472.45
2019-05-22T19:23:25.854Z,101477.20
2019-05-22T19:25:53.601Z,101472.81
2019-05-22T19:28:21.723Z,101479.28
2019-05-22T19:30:49.591Z,101485.32
2019-05-22T19:33:17.336Z,101486.07
2019-05-22T19:35:45.095Z,101490.33
2019-05-22T19:38:13.057Z,101486.77
2019-05-22T19:40:40.904Z,101492.36
2019-05-22T19:43:09.227Z,101487.07
2019-05-22T19:45:37.023Z,101491.77
2019-05-22T19:48:05.937Z,101491.27
2019-05-22T19:50:34.866Z,101498.56
2019-05-22T19:53:18.318Z,101488.89
2019-05-22T19:55:33.525Z,101494.44
2019-05-22T19:58:01.523Z,101501.32
2019-05-22T20:00:31.832Z,101501.23
2019-05-22T20:02:59.589Z,101503.31
2019-05-22T20:05:27.335Z,101505.43
2019-05-22T20:07:55.603Z,101507.55
2019-05-22T20:10:23.345Z,101513.12
2019-05-22T20:12:51.092Z,101509.61
2019-05-22T20:15:19.247Z,101506.92
2019-05-22T20:17:47.372Z,101511.20
2019-05-22T20:20:15.966Z,101512.88
2019-05-22T20:22:44.562Z,101512.83
2019-05-22T20:25:12.837Z,101513.17
2019-05-22T20:27:41.680Z,101517.87
2019-05-22T20:30:10.412Z,101511.72
2019-05-22T20:32:38.236Z,101514.70
2019-05-22T20:35:07.220Z,101519.41
2019-05-22T20:37:35.190Z,101521.53
2019-05-22T20:40:04.115Z,101520.59
2019-05-22T20:42:33.120Z,101529.64
2019-05-22T20:45:01.650Z,101533.92
2019-05-22T20:47:29.398Z,101539.94
2019-05-22T20:49:57.432Z,101542.49
2019-05-22T20:52:25.201Z,101543.73
2019-05-22T20:54:53.798Z,101534.57
2019-05-22T20:57:22.315Z,101537.17
2019-05-22T20:59:50.428Z,101540.55
2019-05-22T21:02:19.859Z,101534.87
2019-05-22T21:04:48.037Z,101536.60
2019-05-22T21:07:16.691Z,101540.93
2019-05-22T21:09:44.448Z,101545.70
2019-05-22T21:12:12.565Z,101547.88
2019-05-22T21:14:41.085Z,101552.25
2019-05-22T21:17:09.474Z,101550.08
2019-05-22T21:19:37.677Z,101557.10
2019-05-22T21:22:06.537Z,101554.42
2019-05-22T21:24:36.428Z,101558.77
2019-05-22T21:27:06.077Z,101550.17
2019-05-22T21:29:33.950Z,101559.28
2019-05-22T21:32:01.688Z,101563.23
2019-05-22T21:34:29.917Z,101556.73
2019-05-22T21:36:57.784Z,101551.10
2019-05-22T21:39:25.893Z,101548.08
2019-05-22T21:41:53.739Z,101549.85
2019-05-22T21:44:21.550Z,101548.55
2019-05-22T21:46:49.267Z,101547.69
2019-05-22T21:49:18.687Z,101544.66
2019-05-22T21:51:46.816Z,101546.82
2019-05-22T21:54:14.744Z,101555.92
2019-05-22T21:56:42.869Z,101555.49
2019-05-22T21:59:11.022Z,101550.30
2019-05-22T22:01:40.411Z,101552.94
2019-05-22T22:04:09.910Z,101555.54
2019-05-22T22:06:37.724Z,101556.03
2019-05-22T22:09:07.568Z,101556.47
2019-05-22T22:11:35.405Z,101561.72
2019-05-22T22:14:03.210Z,101560.47
2019-05-22T22:16:30.990Z,101566.55
2019-05-22T22:18:59.921Z,101568.75
2019-05-22T22:21:28.290Z,101570.07
2019-05-22T22:23:56.174Z,101571.42
2019-05-22T22:26:26.396Z,101561.45
2019-05-22T22:28:53.534Z,101568.00
2019-05-22T22:31:22.940Z,101565.41
2019-05-22T22:33:52.313Z,101565.02
2019-05-22T22:36:20.096Z,101567.62
2019-05-22T22:38:48.815Z,101572.84
2019-05-22T22:41:16.629Z,101573.70
2019-05-22T22:43:45.077Z,101573.27
2019-05-22T22:46:18.881Z,101567.62
2019-05-22T22:48:48.482Z,101538.98
2019-05-22T22:51:17.942Z,101568.92
2019-05-22T22:53:45.685Z,101578.42
2019-05-22T22:56:13.749Z,101568.45
2019-05-22T22:58:42.713Z,101571.48
2019-05-22T23:01:13.283Z,101574.50
2019-05-22T23:03:41.019Z,101566.23
2019-05-22T23:06:10.749Z,101585.30
2019-05-22T23:08:39.745Z,101580.09
2019-05-22T23:11:09.217Z,101579.22
2019-05-22T23:13:37.379Z,101580.91
2019-05-22T23:16:06.594Z,101578.68
2019-05-22T23:18:43.624Z,101583.88
2019-05-22T23:21:12.514Z,101583.44
2019-05-22T23:23:40.944Z,101586.42
2019-05-22T23:26:09.117Z,101587.28
2019-05-22T23:28:40.652Z,101583.28
2019-05-22T23:31:07.457Z,101592.77
2019-05-22T23:33:37.796Z,101594.00
2019-05-22T23:36:05.617Z,101598.27
2019-05-22T23:38:33.835Z,101601.58
2019-05-22T23:41:02.041Z,101603.20
2019-05-22T23:43:29.741Z,101598.33
2019-05-22T23:45:58.566Z,101599.08
2019-05-22T23:48:27.982Z,101608.97
2019-05-22T23:50:56.403Z,101604.03
2019-05-22T23:53:25.219Z,101607.79
2019-05-22T23:55:54.175Z,101605.89
2019-05-22T23:58:23.062Z,101604.88
